sensor_id;sensor_type;location;lat;lon;timestamp;pressure;altitude;pressure_sealevel;temperature;humidity
16461;BME280;8341;42.048;24.650;2023-12-14T00:02:26;96445.91;;;5.00;100.00
16461;BME280;8341;42.048;24.650;2023-12-14T00:04:52;96453.84;;;5.03;100.00
16461;BME280;8341;42.048;24.650;2023-12-14T00:07:19;96473.03;;;5.15;100.00
16461;BME280;8341;42.048;24.650;2023-12-14T00:09:48;96465.22;;;5.26;100.00
16461;BME280;8341;42.048;24.650;2023-12-14T00:12:15;96474.50;;;5.34;100.00
16461;BME280;8341;42.048;24.650;2023-12-14T00:14:42;96468.75;;;4.90;100.00
16461;BME280;8341;42.048;24.650;2023-12-14T00:17:08;96471.41;;;5.08;100.00
16461;BME280;8341;42.048;24.650;2023-12-14T00:19:35;96477.84;;;5.20;100.00
16461;BME280;8341;42.048;24.650;2023-12-14T00:22:02;96468.97;;;5.19;100.00
16461;BME280;8341;42.048;24.650;2023-12-14T00:24:30;96480.09;;;5.21;100.00
16461;BME280;8341;42.048;24.650;2023-12-14T00:26:58;96477.50;;;5.27;100.00
16461;BME280;8341;42.048;24.650;2023-12-14T00:29:25;96471.09;;;5.15;100.00
16461;BME280;8341;42.048;24.650;2023-12-14T00:31:52;96474.69;;;5.21;100.00
16461;BME280;8341;42.048;24.650;2023-12-14T00:34:19;96480.41;;;5.23;100.00
16461;BME280;8341;42.048;24.650;2023-12-14T00:36:46;96476.03;;;5.26;100.00
16461;BME280;8341;42.048;24.650;2023-12-14T00:39:13;96481.88;;;5.33;100.00
16461;BME280;8341;42.048;24.650;2023-12-14T00:41:40;96485.78;;;5.23;100.00
16461;BME280;8341;42.048;24.650;2023-12-14T00:44:08;96485.16;;;5.37;100.00
16461;BME280;8341;42.048;24.650;2023-12-14T00:46:35;96485.16;;;5.37;100.00
16461;BME280;8341;42.048;24.650;2023-12-14T00:49:02;96486.81;;;5.35;100.00
16461;BME280;8341;42.048;24.650;2023-12-14T00:51:29;96482.13;;;5.44;100.00
16461;BME280;8341;42.048;24.650;2023-12-14T00:53:56;96486.38;;;5.27;100.00
16461;BME280;8341;42.048;24.650;2023-12-14T00:56:23;96480.34;;;5.32;100.00
16461;BME280;8341;42.048;24.650;2023-12-14T00:58:49;96480.34;;;5.32;100.00
16461;BME280;8341;42.048;24.650;2023-12-14T01:01:18;96478.72;;;5.26;100.00
16461;BME280;8341;42.048;24.650;2023-12-14T01:03:45;96470.44;;;5.29;100.00
16461;BME280;8341;42.048;24.650;2023-12-14T01:06:11;96458.41;;;5.39;100.00
16461;BME280;8341;42.048;24.650;2023-12-14T01:08:38;96456.59;;;5.45;100.00
16461;BME280;8341;42.048;24.650;2023-12-14T01:11:05;96442.16;;;5.48;100.00
16461;BME280;8341;42.048;24.650;2023-12-14T01:13:33;96437.38;;;5.43;100.00
16461;BME280;8341;42.048;24.650;2023-12-14T01:16:00;96436.34;;;5.32;100.00
16461;BME280;8341;42.048;24.650;2023-12-14T01:18:28;96424.19;;;5.36;100.00
16461;BME280;8341;42.048;24.650;2023-12-14T01:20:55;96437.38;;;5.34;100.00
16461;BME280;8341;42.048;24.650;2023-12-14T01:23:22;96429.28;;;5.34;100.00
16461;BME280;8341;42.048;24.650;2023-12-14T01:25:49;96423.91;;;5.25;100.00
16461;BME280;8341;42.048;24.650;2023-12-14T01:28:16;96429.53;;;5.13;100.00
16461;BME280;8341;42.048;24.650;2023-12-14T01:30:43;96428.31;;;5.14;100.00
16461;BME280;8341;42.048;24.650;2023-12-14T01:33:09;96444.41;;;5.08;100.00
16461;BME280;8341;42.048;24.650;2023-12-14T01:35:38;96443.16;;;5.18;100.00
16461;BME280;8341;42.048;24.650;2023-12-14T01:38:05;96435.78;;;5.28;100.00
16461;BME280;8341;42.048;24.650;2023-12-14T01:40:32;96435.50;;;5.26;100.00
16461;BME280;8341;42.048;24.650;2023-12-14T01:43:08;96445.88;;;5.09;100.00
16461;BME280;8341;42.048;24.650;2023-12-14T01:45:36;96436.59;;;5.10;100.00
16461;BME280;8341;42.048;24.650;2023-12-14T01:48:03;96428.06;;;5.02;100.00
16461;BME280;8341;42.048;24.650;2023-12-14T01:50:30;96441.09;;;5.04;100.00
16461;BME280;8341;42.048;24.650;2023-12-14T01:52:58;96435.94;;;5.24;100.00
16461;BME280;8341;42.048;24.650;2023-12-14T01:55:25;96444.34;;;5.26;100.00
16461;BME280;8341;42.048;24.650;2023-12-14T01:57:52;96429.03;;;5.23;100.00
16461;BME280;8341;42.048;24.650;2023-12-14T02:00:24;96427.09;;;5.15;100.00
16461;BME280;8341;42.048;24.650;2023-12-14T02:02:55;96437.44;;;5.25;100.00
16461;BME280;8341;42.048;24.650;2023-12-14T02:05:22;96444.41;;;5.08;100.00
16461;BME280;8341;42.048;24.650;2023-12-14T02:07:48;96449.81;;;5.08;100.00
16461;BME280;8341;42.048;24.650;2023-12-14T02:10:17;96429.03;;;5.23;100.00
16461;BME280;8341;42.048;24.650;2023-12-14T02:12:44;96427.81;;;5.33;100.00
16461;BME280;8341;42.048;24.650;2023-12-14T02:15:11;96436.78;;;5.39;100.00
16461;BME280;8341;42.048;24.650;2023-12-14T02:17:38;96444.06;;;5.15;100.00
16461;BME280;8341;42.048;24.650;2023-12-14T02:20:06;96453.66;;;5.25;100.00
16461;BME280;8341;42.048;24.650;2023-12-14T02:22:47;96436.25;;;5.17;100.00
16461;BME280;8341;42.048;24.650;2023-12-14T02:25:15;96427.81;;;5.33;100.00
16461;BME280;8341;42.048;24.650;2023-12-14T02:27:42;96436.31;;;5.41;100.00
16461;BME280;8341;42.048;24.650;2023-12-14T02:30:10;96431.53;;;5.36;100.00
16461;BME280;8341;42.048;24.650;2023-12-14T02:32:37;96426.56;;;5.34;100.00
16461;BME280;8341;42.048;24.650;2023-12-14T02:35:05;96425.81;;;5.43;100.00
16461;BME280;8341;42.048;24.650;2023-12-14T02:37:32;96427.19;;;5.29;100.00
16461;BME280;8341;42.048;24.650;2023-12-14T02:40:00;96434.88;;;5.22;100.00
16461;BME280;8341;42.048;24.650;2023-12-14T02:42:29;96421.47;;;5.36;100.00
16461;BME280;8341;42.048;24.650;2023-12-14T02:44:56;96423.56;;;5.41;100.00
16461;BME280;8341;42.048;24.650;2023-12-14T02:47:23;96435.84;;;5.51;100.00
16461;BME280;8341;42.048;24.650;2023-12-14T02:49:49;96423.50;;;5.50;100.00
16461;BME280;8341;42.048;24.650;2023-12-14T02:52:16;96420.94;;;5.56;100.00
16461;BME280;8341;42.048;24.650;2023-12-14T02:54:43;96416.50;;;5.44;100.00
16461;BME280;8341;42.048;24.650;2023-12-14T02:57:12;96423.72;;;5.38;100.00
16461;BME280;8341;42.048;24.650;2023-12-14T02:59:39;96423.00;;;5.28;100.00
16461;BME280;8341;42.048;24.650;2023-12-14T03:02:06;96420.13;;;5.32;100.00
16461;BME280;8341;42.048;24.650;2023-12-14T03:04:33;96410.97;;;5.38;100.00
16461;BME280;8341;42.048;24.650;2023-12-14T03:07:00;96419.41;;;5.31;100.00
16461;BME280;8341;42.048;24.650;2023-12-14T03:09:27;96420.88;;;5.32;100.00
16461;BME280;8341;42.048;24.650;2023-12-14T03:11:54;96435.22;;;5.47;100.00
16461;BME280;8341;42.048;24.650;2023-12-14T03:14:23;96429.53;;;5.45;100.00
16461;BME280;8341;42.048;24.650;2023-12-14T03:16:50;96428.91;;;5.50;100.00
16461;BME280;8341;42.048;24.650;2023-12-14T03:19:18;96438.69;;;5.48;100.00
16461;BME280;8341;42.048;24.650;2023-12-14T03:21:45;96442.56;;;5.56;100.00
16461;BME280;8341;42.048;24.650;2023-12-14T03:24:11;96434.03;;;5.48;100.00
16461;BME280;8341;42.048;24.650;2023-12-14T03:26:38;96421.41;;;5.54;100.00
16461;BME280;8341;42.048;24.650;2023-12-14T03:29:05;96429.53;;;5.54;100.00
16461;BME280;8341;42.048;24.650;2023-12-14T03:31:35;96427.53;;;5.55;100.00
16461;BME280;8341;42.048;24.650;2023-12-14T03:34:02;96440.78;;;5.53;100.00
16461;BME280;8341;42.048;24.650;2023-12-14T03:36:29;96446.81;;;5.48;100.00
16461;BME280;8341;42.048;24.650;2023-12-14T03:38:56;96441.34;;;5.24;100.00
16461;BME280;8341;42.048;24.650;2023-12-14T03:41:22;96427.53;;;5.22;100.00
16461;BME280;8341;42.048;24.650;2023-12-14T03:43:49;96429.00;;;5.32;100.00
16461;BME280;8341;42.048;24.650;2023-12-14T03:46:16;96425.53;;;5.32;100.00
16461;BME280;8341;42.048;24.650;2023-12-14T03:48:44;96427.72;;;5.19;100.00
16461;BME280;8341;42.048;24.650;2023-12-14T03:51:11;96419.09;;;5.29;100.00
16461;BME280;8341;42.048;24.650;2023-12-14T03:53:38;96425.22;;;5.39;100.00
16461;BME280;8341;42.048;24.650;2023-12-14T03:56:06;96414.97;;;5.43;100.00
16461;BME280;8341;42.048;24.650;2023-12-14T03:58:33;96408.66;;;5.46;100.00
16461;BME280;8341;42.048;24.650;2023-12-14T04:01:00;96411.50;;;5.51;100.00
16461;BME280;8341;42.048;24.650;2023-12-14T04:03:27;96400.59;;;5.37;100.00
16461;BME280;8341;42.048;24.650;2023-12-14T04:05:55;96401.63;;;5.39;100.00
16461;BME280;8341;42.048;24.650;2023-12-14T04:08:22;96414.44;;;5.30;100.00
16461;BME280;8341;42.048;24.650;2023-12-14T04:10:49;96411.31;;;5.22;100.00
16461;BME280;8341;42.048;24.650;2023-12-14T04:13:16;96415.47;;;5.32;100.00
16461;BME280;8341;42.048;24.650;2023-12-14T04:15:43;96392.59;;;5.42;100.00
16461;BME280;8341;42.048;24.650;2023-12-14T04:18:10;96418.09;;;5.50;100.00
16461;BME280;8341;42.048;24.650;2023-12-14T04:20:37;96394.53;;;5.51;100.00
16461;BME280;8341;42.048;24.650;2023-12-14T04:23:05;96410.91;;;5.47;100.00
16461;BME280;8341;42.048;24.650;2023-12-14T04:25:32;96400.09;;;5.47;100.00
16461;BME280;8341;42.048;24.650;2023-12-14T04:27:59;96399.03;;;5.45;100.00
16461;BME280;8341;42.048;24.650;2023-12-14T04:30:26;96385.00;;;5.32;100.00
16461;BME280;8341;42.048;24.650;2023-12-14T04:32:53;96400.41;;;5.49;100.00
16461;BME280;8341;42.048;24.650;2023-12-14T04:35:19;96397.31;;;5.33;100.00
16461;BME280;8341;42.048;24.650;2023-12-14T04:37:47;96401.06;;;5.35;100.00
16461;BME280;8341;42.048;24.650;2023-12-14T04:40:16;96394.75;;;5.29;100.00
16461;BME280;8341;42.048;24.650;2023-12-14T04:42:43;96426.13;;;5.36;100.00
16461;BME280;8341;42.048;24.650;2023-12-14T04:45:10;96417.44;;;5.32;100.00
16461;BME280;8341;42.048;24.650;2023-12-14T04:47:38;96423.31;;;5.30;100.00
16461;BME280;8341;42.048;24.650;2023-12-14T04:50:06;96409.50;;;5.28;100.00
16461;BME280;8341;42.048;24.650;2023-12-14T04:52:33;96419.56;;;5.28;100.00
16461;BME280;8341;42.048;24.650;2023-12-14T04:55:00;96422.00;;;5.17;100.00
16461;BME280;8341;42.048;24.650;2023-12-14T04:57:28;96404.16;;;5.10;100.00
16461;BME280;8341;42.048;24.650;2023-12-14T04:59:55;96417.56;;;4.95;100.00
16461;BME280;8341;42.048;24.650;2023-12-14T05:02:22;96404.94;;;5.01;100.00
16461;BME280;8341;42.048;24.650;2023-12-14T05:04:49;96405.63;;;5.11;100.00
16461;BME280;8341;42.048;24.650;2023-12-14T05:07:16;96408.25;;;5.05;100.00
16461;BME280;8341;42.048;24.650;2023-12-14T05:09:43;96406.88;;;5.01;100.00
16461;BME280;8341;42.048;24.650;2023-12-14T05:12:10;96413.94;;;4.98;100.00
16461;BME280;8341;42.048;24.650;2023-12-14T05:14:38;96410.78;;;5.00;100.00
16461;BME280;8341;42.048;24.650;2023-12-14T05:17:05;96398.81;;;4.92;100.00
16461;BME280;8341;42.048;24.650;2023-12-14T05:19:32;96388.81;;;4.65;100.00
16461;BME280;8341;42.048;24.650;2023-12-14T05:22:00;96399.47;;;4.69;100.00
16461;BME280;8341;42.048;24.650;2023-12-14T05:24:26;96402.94;;;4.51;100.00
16461;BME280;8341;42.048;24.650;2023-12-14T05:26:53;96404.00;;;4.54;100.00
16461;BME280;8341;42.048;24.650;2023-12-14T05:29:21;96411.34;;;4.35;100.00
16461;BME280;8341;42.048;24.650;2023-12-14T05:31:50;96413.72;;;4.60;100.00
16461;BME280;8341;42.048;24.650;2023-12-14T05:34:17;96421.97;;;4.66;100.00
16461;BME280;8341;42.048;24.650;2023-12-14T05:36:43;96430.69;;;4.70;100.00
16461;BME280;8341;42.048;24.650;2023-12-14T05:39:10;96441.78;;;4.44;100.00
16461;BME280;8341;42.048;24.650;2023-12-14T05:41:40;96439.38;;;4.56;100.00
16461;BME280;8341;42.048;24.650;2023-12-14T05:44:07;96451.09;;;4.62;100.00
16461;BME280;8341;42.048;24.650;2023-12-14T05:46:35;96454.66;;;4.68;100.00
16461;BME280;8341;42.048;24.650;2023-12-14T05:49:03;96455.59;;;4.65;100.00
16461;BME280;8341;42.048;24.650;2023-12-14T05:51:30;96460.22;;;4.73;100.00
16461;BME280;8341;42.048;24.650;2023-12-14T05:53:58;96445.66;;;4.80;100.00
16461;BME280;8341;42.048;24.650;2023-12-14T05:56:25;96449.84;;;4.90;100.00
16461;BME280;8341;42.048;24.650;2023-12-14T05:58:52;96439.50;;;4.79;100.00
16461;BME280;8341;42.048;24.650;2023-12-14T06:01:19;96423.88;;;4.83;100.00
16461;BME280;8341;42.048;24.650;2023-12-14T06:03:46;96455.41;;;4.86;100.00
16461;BME280;8341;42.048;24.650;2023-12-14T06:06:14;96428.66;;;4.88;100.00
16461;BME280;8341;42.048;24.650;2023-12-14T06:08:41;96436.03;;;4.88;100.00
16461;BME280;8341;42.048;24.650;2023-12-14T06:11:08;96436.00;;;4.97;100.00
16461;BME280;8341;42.048;24.650;2023-12-14T06:13:35;96436.59;;;5.01;100.00
16461;BME280;8341;42.048;24.650;2023-12-14T06:16:03;96445.91;;;5.00;100.00
16461;BME280;8341;42.048;24.650;2023-12-14T06:18:30;96453.38;;;5.14;100.00
16461;BME280;8341;42.048;24.650;2023-12-14T06:20:57;96441.38;;;5.15;100.00
16461;BME280;8341;42.048;24.650;2023-12-14T06:23:25;96438.97;;;5.17;100.00
16461;BME280;8341;42.048;24.650;2023-12-14T06:25:52;96448.25;;;5.25;100.00
16461;BME280;8341;42.048;24.650;2023-12-14T06:28:19;96441.50;;;5.21;100.00
16461;BME280;8341;42.048;24.650;2023-12-14T06:30:47;96443.19;;;5.09;100.00
16461;BME280;8341;42.048;24.650;2023-12-14T06:33:14;96438.06;;;5.11;100.00
16461;BME280;8341;42.048;24.650;2023-12-14T06:35:41;96447.84;;;5.08;100.00
16461;BME280;8341;42.048;24.650;2023-12-14T06:38:08;96447.22;;;5.14;100.00
16461;BME280;8341;42.048;24.650;2023-12-14T06:40:37;96442.41;;;5.18;100.00
16461;BME280;8341;42.048;24.650;2023-12-14T06:43:04;96453.81;;;5.22;100.00
16461;BME280;8341;42.048;24.650;2023-12-14T06:45:31;96449.44;;;5.33;100.00
16461;BME280;8341;42.048;24.650;2023-12-14T06:47:58;96444.31;;;5.35;100.00
16461;BME280;8341;42.048;24.650;2023-12-14T06:50:25;96446.38;;;5.49;100.00
16461;BME280;8341;42.048;24.650;2023-12-14T06:52:52;96452.13;;;5.66;100.00
16461;BME280;8341;42.048;24.650;2023-12-14T06:55:19;96461.75;;;5.67;100.00
16461;BME280;8341;42.048;24.650;2023-12-14T06:57:47;96473.88;;;5.39;100.00
16461;BME280;8341;42.048;24.650;2023-12-14T07:00:15;96477.88;;;5.52;100.00
16461;BME280;8341;42.048;24.650;2023-12-14T07:02:42;96446.38;;;5.49;100.00
16461;BME280;8341;42.048;24.650;2023-12-14T07:05:10;96472.72;;;5.73;100.00
16461;BME280;8341;42.048;24.650;2023-12-14T07:07:36;96468.16;;;5.79;100.00
16461;BME280;8341;42.048;24.650;2023-12-14T07:10:04;96459.91;;;5.73;100.00
16461;BME280;8341;42.048;24.650;2023-12-14T07:12:31;96433.00;;;5.79;100.00
16461;BME280;8341;42.048;24.650;2023-12-14T07:14:59;96425.16;;;5.90;100.00
16461;BME280;8341;42.048;24.650;2023-12-14T07:17:26;96427.22;;;5.95;100.00
16461;BME280;8341;42.048;24.650;2023-12-14T07:19:53;96429.16;;;6.18;100.00
16461;BME280;8341;42.048;24.650;2023-12-14T07:22:20;96435.50;;;6.15;100.00
16461;BME280;8341;42.048;24.650;2023-12-14T07:24:47;96448.53;;;6.40;100.00
16461;BME280;8341;42.048;24.650;2023-12-14T07:27:14;96442.69;;;6.18;100.00
16461;BME280;8341;42.048;24.650;2023-12-14T07:29:41;96450.63;;;6.21;100.00
16461;BME280;8341;42.048;24.650;2023-12-14T07:32:09;96452.53;;;6.30;100.00
16461;BME280;8341;42.048;24.650;2023-12-14T07:34:37;96453.69;;;6.38;100.00
16461;BME280;8341;42.048;24.650;2023-12-14T07:37:04;96464.25;;;6.51;100.00
16461;BME280;8341;42.048;24.650;2023-12-14T07:39:32;96454.88;;;6.75;100.00
16461;BME280;8341;42.048;24.650;2023-12-14T07:41:59;96478.44;;;6.99;100.00
16461;BME280;8341;42.048;24.650;2023-12-14T07:44:27;96469.09;;;7.00;100.00
16461;BME280;8341;42.048;24.650;2023-12-14T07:46:55;96478.81;;;7.06;100.00
16461;BME280;8341;42.048;24.650;2023-12-14T07:49:23;96475.66;;;7.22;100.00
16461;BME280;8341;42.048;24.650;2023-12-14T07:51:50;96487.25;;;7.23;100.00
16461;BME280;8341;42.048;24.650;2023-12-14T07:54:18;96484.44;;;7.32;100.00
16461;BME280;8341;42.048;24.650;2023-12-14T07:56:45;96476.22;;;7.41;100.00
16461;BME280;8341;42.048;24.650;2023-12-14T07:59:12;96478.34;;;7.51;100.00
16461;BME280;8341;42.048;24.650;2023-12-14T08:01:39;96459.81;;;7.50;100.00
16461;BME280;8341;42.048;24.650;2023-12-14T08:04:06;96486.97;;;7.21;100.00
16461;BME280;8341;42.048;24.650;2023-12-14T08:06:37;96485.09;;;6.98;100.00
16461;BME280;8341;42.048;24.650;2023-12-14T08:09:04;96474.13;;;6.77;100.00
16461;BME280;8341;42.048;24.650;2023-12-14T08:11:31;96472.19;;;6.92;100.00
16461;BME280;8341;42.048;24.650;2023-12-14T08:13:58;96475.28;;;7.15;100.00
16461;BME280;8341;42.048;24.650;2023-12-14T08:16:25;96470.25;;;7.37;100.00
16461;BME280;8341;42.048;24.650;2023-12-14T08:18:52;96457.56;;;7.63;100.00
16461;BME280;8341;42.048;24.650;2023-12-14T08:21:19;96458.69;;;7.91;100.00
16461;BME280;8341;42.048;24.650;2023-12-14T08:23:47;96481.69;;;8.10;100.00
16461;BME280;8341;42.048;24.650;2023-12-14T08:26:14;96478.47;;;8.12;100.00
16461;BME280;8341;42.048;24.650;2023-12-14T08:28:41;96476.03;;;8.29;100.00
16461;BME280;8341;42.048;24.650;2023-12-14T08:31:09;96477.66;;;8.41;100.00
16461;BME280;8341;42.048;24.650;2023-12-14T08:33:37;96479.13;;;8.22;100.00
16461;BME280;8341;42.048;24.650;2023-12-14T08:36:05;96463.13;;;8.09;100.00
16461;BME280;8341;42.048;24.650;2023-12-14T08:38:32;96468.91;;;8.31;100.00
16461;BME280;8341;42.048;24.650;2023-12-14T08:41:00;96485.28;;;8.37;100.00
16461;BME280;8341;42.048;24.650;2023-12-14T08:43:27;96486.09;;;8.08;100.00
16461;BME280;8341;42.048;24.650;2023-12-14T08:45:54;96481.19;;;8.27;100.00
16461;BME280;8341;42.048;24.650;2023-12-14T08:48:21;96491.59;;;7.79;100.00
16461;BME280;8341;42.048;24.650;2023-12-14T08:50:48;96495.38;;;8.01;100.00
16461;BME280;8341;42.048;24.650;2023-12-14T08:53:15;96503.81;;;8.03;100.00
16461;BME280;8341;42.048;24.650;2023-12-14T08:55:41;96507.00;;;8.22;100.00
16461;BME280;8341;42.048;24.650;2023-12-14T08:58:10;96499.25;;;8.50;100.00
16461;BME280;8341;42.048;24.650;2023-12-14T09:00:36;96501.75;;;8.73;100.00
16461;BME280;8341;42.048;24.650;2023-12-14T09:03:03;96500.31;;;8.98;100.00
16461;BME280;8341;42.048;24.650;2023-12-14T09:05:30;96492.34;;;9.20;100.00
16461;BME280;8341;42.048;24.650;2023-12-14T09:07:58;96493.53;;;9.39;100.00
16461;BME280;8341;42.048;24.650;2023-12-14T09:10:25;96492.13;;;9.50;100.00
16461;BME280;8341;42.048;24.650;2023-12-14T09:12:52;96479.00;;;8.97;99.59
16461;BME280;8341;42.048;24.650;2023-12-14T09:15:20;96466.84;;;8.46;100.00
16461;BME280;8341;42.048;24.650;2023-12-14T09:17:47;96473.16;;;8.78;100.00
16461;BME280;8341;42.048;24.650;2023-12-14T09:20:14;96461.19;;;8.70;100.00
16461;BME280;8341;42.048;24.650;2023-12-14T09:22:41;96454.41;;;8.40;100.00
16461;BME280;8341;42.048;24.650;2023-12-14T09:25:08;96452.78;;;8.48;100.00
16461;BME280;8341;42.048;24.650;2023-12-14T09:27:35;96460.91;;;8.88;100.00
16461;BME280;8341;42.048;24.650;2023-12-14T09:30:03;96448.72;;;9.09;100.00
16461;BME280;8341;42.048;24.650;2023-12-14T09:32:32;96436.69;;;8.90;99.98
16461;BME280;8341;42.048;24.650;2023-12-14T09:34:59;96435.41;;;8.40;100.00
16461;BME280;8341;42.048;24.650;2023-12-14T09:37:26;96444.59;;;8.88;100.00
16461;BME280;8341;42.048;24.650;2023-12-14T09:39:53;96439.47;;;8.96;100.00
16461;BME280;8341;42.048;24.650;2023-12-14T09:42:21;96433.69;;;9.14;100.00
16461;BME280;8341;42.048;24.650;2023-12-14T09:44:48;96438.75;;;9.26;100.00
16461;BME280;8341;42.048;24.650;2023-12-14T09:47:16;96429.06;;;8.48;100.00
16461;BME280;8341;42.048;24.650;2023-12-14T09:49:45;96417.81;;;8.35;100.00
16461;BME280;8341;42.048;24.650;2023-12-14T09:52:12;96411.09;;;8.31;100.00
16461;BME280;8341;42.048;24.650;2023-12-14T09:54:39;96408.91;;;8.35;100.00
16461;BME280;8341;42.048;24.650;2023-12-14T09:57:06;96410.31;;;8.50;100.00
16461;BME280;8341;42.048;24.650;2023-12-14T09:59:33;96416.31;;;8.54;100.00
16461;BME280;8341;42.048;24.650;2023-12-14T10:02:10;96416.88;;;7.83;100.00
16461;BME280;8341;42.048;24.650;2023-12-14T10:04:37;96417.75;;;8.50;100.00
16461;BME280;8341;42.048;24.650;2023-12-14T10:07:05;96421.06;;;8.85;100.00
16461;BME280;8341;42.048;24.650;2023-12-14T10:09:33;96426.00;;;9.12;100.00
16461;BME280;8341;42.048;24.650;2023-12-14T10:12:05;96431.28;;;9.53;100.00
16461;BME280;8341;42.048;24.650;2023-12-14T10:14:32;96437.00;;;9.23;100.00
16461;BME280;8341;42.048;24.650;2023-12-14T10:17:13;96420.94;;;9.00;100.00
16461;BME280;8341;42.048;24.650;2023-12-14T10:19:42;96420.25;;;8.79;100.00
16461;BME280;8341;42.048;24.650;2023-12-14T10:22:10;96398.00;;;8.75;100.00
16461;BME280;8341;42.048;24.650;2023-12-14T10:24:37;96403.53;;;9.17;100.00
16461;BME280;8341;42.048;24.650;2023-12-14T10:27:05;96408.38;;;9.33;100.00
16461;BME280;8341;42.048;24.650;2023-12-14T10:29:33;96391.66;;;9.15;100.00
16461;BME280;8341;42.048;24.650;2023-12-14T10:32:03;96394.28;;;9.35;100.00
16461;BME280;8341;42.048;24.650;2023-12-14T10:34:32;96386.28;;;9.20;100.00
16461;BME280;8341;42.048;24.650;2023-12-14T10:36:59;96391.72;;;9.20;99.92
16461;BME280;8341;42.048;24.650;2023-12-14T10:39:29;96389.56;;;8.99;100.00
16461;BME280;8341;42.048;24.650;2023-12-14T10:41:57;96379.00;;;9.06;100.00
16461;BME280;8341;42.048;24.650;2023-12-14T10:44:26;96392.88;;;8.82;100.00
16461;BME280;8341;42.048;24.650;2023-12-14T10:46:55;96382.66;;;8.72;100.00
16461;BME280;8341;42.048;24.650;2023-12-14T10:49:25;96378.06;;;9.15;100.00
16461;BME280;8341;42.048;24.650;2023-12-14T10:51:54;96375.56;;;9.11;100.00
16461;BME280;8341;42.048;24.650;2023-12-14T10:54:23;96386.16;;;9.09;100.00
16461;BME280;8341;42.048;24.650;2023-12-14T10:56:54;96374.53;;;9.03;100.00
16461;BME280;8341;42.048;24.650;2023-12-14T10:59:21;96388.38;;;9.05;100.00
16461;BME280;8341;42.048;24.650;2023-12-14T11:01:51;96379.50;;;9.41;100.00
16461;BME280;8341;42.048;24.650;2023-12-14T11:04:18;96400.78;;;9.43;100.00
16461;BME280;8341;42.048;24.650;2023-12-14T11:06:46;96398.91;;;9.23;100.00
16461;BME280;8341;42.048;24.650;2023-12-14T11:09:17;96413.66;;;9.48;100.00
16461;BME280;8341;42.048;24.650;2023-12-14T11:11:56;96406.00;;;9.47;99.86
16461;BME280;8341;42.048;24.650;2023-12-14T11:14:25;96403.13;;;9.61;97.81
16461;BME280;8341;42.048;24.650;2023-12-14T11:16:54;96390.78;;;9.66;98.42
16461;BME280;8341;42.048;24.650;2023-12-14T11:19:29;96403.56;;;9.91;97.05
16461;BME280;8341;42.048;24.650;2023-12-14T11:22:12;96384.28;;;10.00;95.75
16461;BME280;8341;42.048;24.650;2023-12-14T11:24:51;96389.88;;;10.28;96.57
16461;BME280;8341;42.048;24.650;2023-12-14T11:27:25;96395.63;;;10.46;95.46
16461;BME280;8341;42.048;24.650;2023-12-14T11:29:53;96386.75;;;10.57;94.74
16461;BME280;8341;42.048;24.650;2023-12-14T11:32:20;96407.09;;;10.73;93.19
16461;BME280;8341;42.048;24.650;2023-12-14T11:34:47;96395.97;;;10.82;91.74
16461;BME280;8341;42.048;24.650;2023-12-14T11:37:14;96398.94;;;10.89;89.39
16461;BME280;8341;42.048;24.650;2023-12-14T11:39:41;96392.00;;;10.99;89.30
16461;BME280;8341;42.048;24.650;2023-12-14T11:42:09;96395.50;;;11.05;89.25
16461;BME280;8341;42.048;24.650;2023-12-14T11:44:38;96385.81;;;11.15;88.80
16461;BME280;8341;42.048;24.650;2023-12-14T11:47:07;96390.78;;;11.11;87.04
16461;BME280;8341;42.048;24.650;2023-12-14T11:49:34;96396.72;;;11.10;87.06
16461;BME280;8341;42.048;24.650;2023-12-14T11:52:02;96393.75;;;10.91;88.68
16461;BME280;8341;42.048;24.650;2023-12-14T11:54:31;96392.72;;;10.72;90.67
16461;BME280;8341;42.048;24.650;2023-12-14T11:57:01;96394.38;;;10.42;91.59
16461;BME280;8341;42.048;24.650;2023-12-14T11:59:28;96398.88;;;10.45;93.29
16461;BME280;8341;42.048;24.650;2023-12-14T12:01:57;96398.13;;;10.44;92.45
16461;BME280;8341;42.048;24.650;2023-12-14T12:04:25;96399.81;;;10.36;94.22
16461;BME280;8341;42.048;24.650;2023-12-14T12:06:59;96383.66;;;10.22;95.56
16461;BME280;8341;42.048;24.650;2023-12-14T12:09:37;96377.06;;;9.86;94.93
16461;BME280;8341;42.048;24.650;2023-12-14T12:12:08;96377.50;;;9.79;97.09
16461;BME280;8341;42.048;24.650;2023-12-14T12:14:36;96384.63;;;9.71;99.47
16461;BME280;8341;42.048;24.650;2023-12-14T12:17:06;96395.91;;;9.95;97.02
16461;BME280;8341;42.048;24.650;2023-12-14T12:19:34;96386.94;;;9.89;97.16
16461;BME280;8341;42.048;24.650;2023-12-14T12:22:01;96394.28;;;10.14;96.35
16461;BME280;8341;42.048;24.650;2023-12-14T12:24:28;96401.00;;;10.30;93.92
16461;BME280;8341;42.048;24.650;2023-12-14T12:26:55;96393.63;;;10.41;91.92
16461;BME280;8341;42.048;24.650;2023-12-14T12:29:21;96405.06;;;10.56;91.30
16461;BME280;8341;42.048;24.650;2023-12-14T12:31:48;96400.66;;;10.76;90.98
16461;BME280;8341;42.048;24.650;2023-12-14T12:34:16;96392.50;;;10.92;90.16
16461;BME280;8341;42.048;24.650;2023-12-14T12:36:43;96385.81;;;11.10;92.73
16461;BME280;8341;42.048;24.650;2023-12-14T12:39:10;96392.78;;;11.22;91.60
16461;BME280;8341;42.048;24.650;2023-12-14T12:41:37;96386.09;;;11.06;88.68
16461;BME280;8341;42.048;24.650;2023-12-14T12:44:04;96403.66;;;10.78;88.79
16461;BME280;8341;42.048;24.650;2023-12-14T12:46:33;96396.97;;;10.95;89.86
16461;BME280;8341;42.048;24.650;2023-12-14T12:49:01;96404.44;;;11.11;89.53
16461;BME280;8341;42.048;24.650;2023-12-14T12:51:30;96409.16;;;11.11;89.29
16461;BME280;8341;42.048;24.650;2023-12-14T12:53:57;96404.41;;;11.00;88.51
16461;BME280;8341;42.048;24.650;2023-12-14T12:56:25;96402.91;;;10.99;89.15
16461;BME280;8341;42.048;24.650;2023-12-14T12:58:52;96404.66;;;11.08;88.56
16461;BME280;8341;42.048;24.650;2023-12-14T13:01:19;96410.63;;;11.01;89.75
16461;BME280;8341;42.048;24.650;2023-12-14T13:03:51;96389.50;;;10.79;91.51